Time;durP1;ratioP1;P1;durP2;ratioP2;P2;SDS_P1;SDS_P2;PMS_P1;PMS_P2;Temp;Humidity;BMP_temperature;BMP_pressure;BME280_temperature;BME280_humidity;BME280_pressure;Samples;Min_cycle;Max_cycle;Signal;HPM_P1;HPM_P2
2024/01/14 00:00:49;;;;;;;7.80;5.22;;;;;;;5.46;97.65;100267.19;5021452;27;99568;-74
2024/01/14 00:03:15;;;;;;;10.15;5.13;;;;;;;5.27;100.00;100265.88;5018159;27;101163;-74
2024/01/14 00:05:41;;;;;;;9.05;4.70;;;;;;;5.31;100.00;100270.19;5025979;27;98848;-74
2024/01/14 00:08:08;;;;;;;8.30;5.05;;;;;;;5.18;100.00;100265.19;5025491;27;96855;-73
2024/01/14 00:10:35;;;;;;;10.93;5.55;;;;;;;5.06;100.00;100268.06;5023123;27;99069;-73
2024/01/14 00:13:01;;;;;;;14.75;5.85;;;;;;;5.39;99.87;100268.22;5021624;27;102028;-74
2024/01/14 00:15:27;;;;;;;12.23;5.78;;;;;;;5.46;99.43;100267.19;5023886;27;97034;-75
2024/01/14 00:17:55;;;;;;;12.57;6.03;;;;;;;5.63;98.90;100275.56;5022025;27;96778;-74
2024/01/14 00:20:21;;;;;;;11.15;5.60;;;;;;;5.69;98.51;100264.06;5021991;27;98877;-74
2024/01/14 00:22:48;;;;;;;13.63;5.88;;;;;;;5.72;97.74;100248.25;5024153;27;97493;-74
2024/01/14 00:25:17;;;;;;;14.05;6.40;;;;;;;5.75;98.29;100243.81;5024576;27;96850;-74
2024/01/14 00:27:43;;;;;;;12.88;6.00;;;;;;;5.45;99.02;100239.25;5021351;27;98524;-74
2024/01/14 00:30:10;;;;;;;13.02;5.05;;;;;;;4.93;100.00;100227.31;5018856;27;101018;-74
2024/01/14 00:32:37;;;;;;;11.30;5.35;;;;;;;5.08;100.00;100223.50;5024663;28;98143;-75
2024/01/14 00:35:06;;;;;;;10.70;5.55;;;;;;;5.48;100.00;100221.72;5025796;27;97213;-76
2024/01/14 00:37:32;;;;;;;11.32;5.80;;;;;;;5.37;99.77;100205.41;5021602;27;96802;-75
2024/01/14 00:39:59;;;;;;;13.07;6.05;;;;;;;5.61;99.45;100203.97;5020078;27;102105;-74
2024/01/14 00:42:25;;;;;;;10.02;5.60;;;;;;;5.85;97.60;100210.34;5023111;27;99411;-74
2024/01/14 00:44:52;;;;;;;11.10;4.85;;;;;;;5.46;98.28;100213.03;5024515;27;97486;-74
2024/01/14 00:47:18;;;;;;;8.30;3.75;;;;;;;5.20;99.36;100208.38;5024523;27;96836;-74
2024/01/14 00:49:45;;;;;;;7.07;4.40;;;;;;;5.10;100.00;100209.50;5020364;27;100602;-74
2024/01/14 00:52:12;;;;;;;7.95;4.82;;;;;;;5.18;100.00;100199.72;5022288;28;98868;-72
2024/01/14 00:54:39;;;;;;;7.55;3.35;;;;;;;5.33;100.00;100213.34;5023939;27;97233;-72
2024/01/14 00:57:07;;;;;;;8.65;4.05;;;;;;;5.04;100.00;100212.25;5025211;27;98522;-72
2024/01/14 00:59:34;;;;;;;9.43;4.55;;;;;;;5.14;100.00;100198.03;5018817;27;99019;-72
2024/01/14 01:02:00;;;;;;;6.50;3.92;;;;;;;4.99;100.00;100200.16;5016594;27;99563;-72
2024/01/14 01:04:27;;;;;;;19.98;7.63;;;;;;;5.26;100.00;100186.44;5024134;27;96874;-72
2024/01/14 01:06:54;;;;;;;7.90;3.50;;;;;;;5.23;100.00;100197.00;5022782;27;98652;-73
2024/01/14 01:09:22;;;;;;;8.43;3.83;;;;;;;5.19;100.00;100190.06;5019089;27;97927;-73
2024/01/14 01:11:48;;;;;;;7.85;3.70;;;;;;;5.02;100.00;100182.59;5020247;27;98763;-72
2024/01/14 01:14:15;;;;;;;9.18;3.10;;;;;;;4.68;100.00;100195.53;5020479;27;96777;-72
2024/01/14 01:16:41;;;;;;;5.43;3.35;;;;;;;5.15;100.00;100197.16;5016516;27;97598;-72
2024/01/14 01:19:07;;;;;;;8.32;3.40;;;;;;;5.41;98.77;100200.94;5022954;27;97806;-75
2024/01/14 01:21:34;;;;;;;9.18;3.20;;;;;;;5.02;99.43;100192.22;5025636;28;101388;-74
2024/01/14 01:24:00;;;;;;;6.22;2.50;;;;;;;4.94;99.75;100188.91;5024858;27;99358;-73
2024/01/14 01:26:28;;;;;;;5.05;3.10;;;;;;;5.36;99.26;100197.56;5024704;27;96864;-73
2024/01/14 01:28:54;;;;;;;7.03;2.67;;;;;;;5.79;96.02;100187.78;5019545;27;99571;-75
2024/01/14 01:31:21;;;;;;;4.68;2.40;;;;;;;5.65;94.98;100189.00;5024229;27;98857;-74
2024/01/14 01:33:47;;;;;;;7.45;3.28;;;;;;;5.10;97.35;100178.06;5020722;27;96851;-74
2024/01/14 01:36:14;;;;;;;3.63;2.45;;;;;;;5.12;98.65;100188.53;5025779;27;97178;-75
2024/01/14 01:38:41;;;;;;;5.65;2.25;;;;;;;4.86;99.06;100180.38;5022067;27;101270;-74
2024/01/14 01:41:07;;;;;;;3.08;1.92;;;;;;;4.84;99.75;100177.78;5022098;27;98866;-74
2024/01/14 01:43:35;;;;;;;4.68;3.00;;;;;;;5.05;99.73;100177.31;5019813;27;96732;-76
2024/01/14 01:46:02;;;;;;;4.32;2.70;;;;;;;4.94;98.95;100166.19;5018663;27;97676;-74
2024/01/14 01:48:29;;;;;;;5.78;2.90;;;;;;;4.39;100.00;100159.50;5019788;27;99460;-76
2024/01/14 01:50:56;;;;;;;4.63;2.53;;;;;;;4.07;100.00;100161.00;5015913;27;99413;-76
2024/01/14 01:53:24;;;;;;;5.43;3.00;;;;;;;4.27;100.00;100158.84;5012529;27;97832;-76
2024/01/14 01:55:52;;;;;;;5.35;2.72;;;;;;;4.40;100.00;100142.03;5024889;27;97076;-76
2024/01/14 01:58:18;;;;;;;7.65;3.42;;;;;;;4.49;100.00;100133.13;5020107;27;99114;-75
2024/01/14 02:00:46;;;;;;;7.47;3.65;;;;;;;4.56;100.00;100126.88;5024907;27;99380;-75
2024/01/14 02:03:14;;;;;;;11.32;3.25;;;;;;;4.77;100.00;100131.69;5019049;27;96779;-76
2024/01/14 02:05:41;;;;;;;4.75;2.78;;;;;;;4.49;100.00;100128.78;5022766;27;96867;-75
2024/01/14 02:08:07;;;;;;;5.78;3.22;;;;;;;4.58;100.00;100143.44;5022855;27;97890;-74
2024/01/14 02:10:34;;;;;;;5.38;3.25;;;;;;;5.08;99.80;100147.56;5020984;27;99641;-75
2024/01/14 02:13:00;;;;;;;5.68;3.13;;;;;;;5.06;99.22;100146.72;5019838;27;97589;-74
2024/01/14 02:15:27;;;;;;;3.80;2.47;;;;;;;5.07;98.56;100138.84;5021555;27;97043;-76
2024/01/14 02:17:54;;;;;;;7.90;3.22;;;;;;;4.82;99.83;100128.06;5018758;27;101271;-74
2024/01/14 02:20:21;;;;;;;7.20;3.17;;;;;;;4.73;100.00;100138.72;5021853;27;98868;-76
2024/01/14 02:22:50;;;;;;;8.10;2.85;;;;;;;4.88;100.00;100141.91;5021553;27;97162;-75
2024/01/14 02:25:17;;;;;;;6.88;2.30;;;;;;;4.86;98.81;100143.72;5029503;27;97029;-75
2024/01/14 02:27:44;;;;;;;8.20;2.70;;;;;;;4.41;100.00;100146.38;5026829;27;101074;-76
2024/01/14 02:30:11;;;;;;;8.05;2.20;;;;;;;4.49;100.00;100147.09;5019559;27;98906;-76
2024/01/14 02:32:38;;;;;;;4.18;1.67;;;;;;;4.72;99.88;100130.94;5020309;27;97194;-75
2024/01/14 02:35:06;;;;;;;7.50;2.85;;;;;;;4.82;98.88;100137.66;5026883;27;97746;-74
2024/01/14 02:37:33;;;;;;;3.65;1.67;;;;;;;4.84;98.97;100130.66;5020413;27;99078;-73
2024/01/14 02:39:59;;;;;;;8.45;2.33;;;;;;;4.67;99.70;100122.28;5019680;27;99287;-72
2024/01/14 02:42:27;;;;;;;9.48;2.40;;;;;;;4.78;98.86;100125.56;5023700;27;97311;-72
2024/01/14 02:44:53;;;;;;;10.93;2.10;;;;;;;5.06;97.62;100116.16;5028542;27;98463;-73
2024/01/14 02:47:20;;;;;;;13.02;3.28;;;;;;;4.97;97.93;100107.69;5030403;28;99063;-73
2024/01/14 02:49:46;;;;;;;10.70;2.05;;;;;;;5.03;97.27;100111.00;5020193;27;99408;-73
2024/01/14 02:52:12;;;;;;;5.50;1.88;;;;;;;5.24;96.20;100116.66;5023752;27;97264;-74
2024/01/14 02:54:39;;;;;;;12.48;2.35;;;;;;;5.69;94.14;100105.03;5027661;27;97132;-73
2024/01/14 02:57:05;;;;;;;8.60;1.98;;;;;;;5.34;95.12;100112.91;5020043;27;98914;-74
2024/01/14 02:59:33;;;;;;;8.13;2.20;;;;;;;5.69;93.18;100106.78;5020952;27;101728;-74
2024/01/14 03:01:59;;;;;;;5.32;1.92;;;;;;;5.66;92.85;100105.09;5021976;27;97101;-74
2024/01/14 03:04:26;;;;;;;4.00;1.60;;;;;;;5.03;93.96;100097.06;5026083;27;96776;-74
2024/01/14 03:06:52;;;;;;;6.47;1.80;;;;;;;4.76;96.82;100106.41;5024683;27;98359;-73
2024/01/14 03:09:18;;;;;;;7.00;1.60;;;;;;;4.57;97.91;100097.22;5016469;27;99481;-73
2024/01/14 03:11:45;;;;;;;8.43;2.13;;;;;;;4.53;98.07;100092.97;5025798;27;97366;-73
2024/01/14 03:14:11;;;;;;;10.73;1.92;;;;;;;4.84;96.87;100098.38;5024132;27;97103;-73
2024/01/14 03:16:39;;;;;;;14.40;2.13;;;;;;;4.45;97.99;100094.88;5024770;27;99315;-73
2024/01/14 03:19:05;;;;;;;6.18;1.33;;;;;;;4.32;98.76;100089.91;5017444;27;98818;-77
2024/01/14 03:21:32;;;;;;;6.03;1.48;;;;;;;4.50;97.54;100095.63;5029059;27;97076;-73
2024/01/14 03:23:58;;;;;;;9.45;1.27;;;;;;;4.17;99.45;100092.81;5022686;27;97137;-74
2024/01/14 03:26:25;;;;;;;5.38;1.10;;;;;;;4.05;100.00;100087.81;5026476;27;99221;-74
2024/01/14 03:28:51;;;;;;;7.07;0.95;;;;;;;4.14;99.57;100092.00;5025993;27;99015;-74
2024/01/14 03:31:18;;;;;;;7.07;1.40;;;;;;;4.29;98.42;100083.84;5021173;27;97030;-75
2024/01/14 03:33:45;;;;;;;14.77;1.95;;;;;;;4.34;98.41;100088.09;5023870;27;98185;-74
2024/01/14 03:36:13;;;;;;;6.82;1.30;;;;;;;4.45;97.26;100089.63;5023354;27;101619;-74
2024/01/14 03:38:40;;;;;;;9.77;1.65;;;;;;;4.85;96.44;100085.25;5022870;27;99716;-74
2024/01/14 03:41:06;;;;;;;4.78;1.67;;;;;;;4.52;96.65;100092.09;5026872;27;98255;-74
2024/01/14 03:43:33;;;;;;;8.95;1.60;;;;;;;4.51;96.59;100092.13;5025007;27;97103;-74
2024/01/14 03:45:59;;;;;;;10.85;1.40;;;;;;;4.38;97.39;100088.91;5016080;27;101501;-74
2024/01/14 03:48:26;;;;;;;8.68;1.50;;;;;;;4.33;97.37;100085.53;5026677;27;100047;-74
2024/01/14 03:50:54;;;;;;;15.68;1.80;;;;;;;4.37;97.56;100095.88;5024067;27;97722;-76
2024/01/14 03:53:20;;;;;;;9.13;1.40;;;;;;;4.28;96.46;100090.84;5021485;27;96897;-75
2024/01/14 03:55:47;;;;;;;9.00;1.25;;;;;;;4.36;97.37;100086.31;5020034;27;101766;-74
2024/01/14 03:58:14;;;;;;;8.00;0.98;;;;;;;4.20;97.32;100079.66;5024457;27;98754;-75
2024/01/14 04:00:41;;;;;;;5.47;1.00;;;;;;;4.47;96.56;100086.06;5024688;27;97020;-75
2024/01/14 04:03:07;;;;;;;5.50;0.80;;;;;;;4.38;96.59;100086.28;5019247;27;98631;-75
2024/01/14 04:05:33;;;;;;;9.70;1.27;;;;;;;4.78;95.08;100099.38;5020754;27;98859;-75
2024/01/14 04:08:01;;;;;;;4.78;0.80;;;;;;;4.52;95.39;100101.69;5019763;27;99037;-75
2024/01/14 04:10:28;;;;;;;11.15;1.35;;;;;;;4.73;94.53;100094.22;5021750;27;97339;-75
2024/01/14 04:12:54;;;;;;;7.35;1.35;;;;;;;4.79;93.91;100085.41;5014999;27;97108;-75
2024/01/14 04:15:21;;;;;;;13.10;1.15;;;;;;;4.78;93.85;100089.78;5019930;27;98901;-75
2024/01/14 04:17:48;;;;;;;8.38;1.48;;;;;;;4.99;93.82;100087.56;5021268;27;98763;-74
2024/01/14 04:20:14;;;;;;;13.73;1.38;;;;;;;4.88;93.08;100089.53;5023708;27;96791;-72
2024/01/14 04:22:41;;;;;;;8.60;1.40;;;;;;;4.89;92.42;100092.13;5023163;27;100601;-73
2024/01/14 04:25:09;;;;;;;10.70;1.45;;;;;;;5.03;92.53;100091.81;5019898;27;102044;-73
2024/01/14 04:27:35;;;;;;;18.42;1.92;;;;;;;5.20;91.95;100080.03;5023551;27;98838;-73
2024/01/14 04:30:02;;;;;;;11.25;1.70;;;;;;;5.27;90.91;100087.75;5026659;27;96818;-74
2024/01/14 04:32:28;;;;;;;11.43;1.38;;;;;;;5.15;90.79;100087.16;5026063;27;96743;-72
2024/01/14 04:34:54;;;;;;;15.63;1.77;;;;;;;5.53;89.15;100083.59;5024394;27;98942;-73
2024/01/14 04:37:21;;;;;;;14.75;1.42;;;;;;;5.38;90.17;100086.56;5022278;27;96737;-72
2024/01/14 04:39:47;;;;;;;15.85;1.42;;;;;;;5.41;89.32;100094.38;5020808;27;97213;-73
2024/01/14 04:42:15;;;;;;;5.88;1.27;;;;;;;5.64;87.86;100093.81;5022940;27;96975;-73
2024/01/14 04:44:41;;;;;;;10.35;1.50;;;;;;;5.97;87.71;100100.78;5022667;27;99362;-73
2024/01/14 04:47:07;;;;;;;16.98;1.90;;;;;;;6.34;85.09;100102.41;5023401;27;101645;-73
2024/01/14 04:49:34;;;;;;;14.68;1.70;;;;;;;6.39;84.45;100106.63;5017629;27;97238;-73
2024/01/14 04:52:00;;;;;;;15.55;1.60;;;;;;;6.00;85.09;100108.59;5018986;27;96763;-72
2024/01/14 04:54:27;;;;;;;14.23;2.70;;;;;;;5.65;87.39;100111.22;5021350;27;100850;-72
2024/01/14 04:56:53;;;;;;;10.35;1.25;;;;;;;5.32;89.62;100105.06;5018902;27;98775;-72
2024/01/14 04:59:21;;;;;;;17.13;2.13;;;;;;;5.72;87.66;100090.97;5016212;27;97229;-73
2024/01/14 05:01:47;;;;;;;13.20;1.90;;;;;;;5.96;86.62;100100.84;5019818;27;97886;-72
2024/01/14 05:04:14;;;;;;;16.55;2.00;;;;;;;6.07;85.60;100097.94;5020276;27;99051;-73
2024/01/14 05:06:40;;;;;;;12.40;1.63;;;;;;;6.27;85.00;100095.63;5025636;27;99537;-73
2024/01/14 05:09:07;;;;;;;13.82;2.53;;;;;;;5.69;85.59;100112.91;5018528;27;96925;-72
2024/01/14 05:11:33;;;;;;;10.57;1.67;;;;;;;5.95;86.46;100089.50;5023976;27;97013;-73
2024/01/14 05:13:59;;;;;;;11.77;1.33;;;;;;;6.17;86.25;100109.91;5016458;27;98295;-74
2024/01/14 05:16:27;;;;;;;11.85;1.77;;;;;;;6.51;83.71;100100.16;5023883;27;101170;-72
2024/01/14 05:18:54;;;;;;;16.80;2.28;;;;;;;6.44;84.39;100098.63;5019602;27;96822;-74
2024/01/14 05:21:20;;;;;;;12.73;1.33;;;;;;;6.69;82.51;100099.66;5018867;27;97248;-72
2024/01/14 05:23:47;;;;;;;11.40;1.33;;;;;;;6.23;83.59;100094.00;5016815;27;98885;-71
2024/01/14 05:26:13;;;;;;;11.85;1.40;;;;;;;6.47;83.92;100105.56;5021030;27;98851;-72
2024/01/14 05:28:40;;;;;;;14.40;1.25;;;;;;;6.67;82.68;100096.19;5019992;27;97278;-72
2024/01/14 05:31:06;;;;;;;12.48;1.50;;;;;;;6.30;83.25;100095.56;5023702;27;98421;-71
2024/01/14 05:33:34;;;;;;;12.60;2.05;;;;;;;6.23;84.56;100099.25;5014935;27;99347;-72
2024/01/14 05:36:01;;;;;;;27.73;7.25;;;;;;;6.57;83.19;100088.63;5021612;27;99037;-73
2024/01/14 05:38:27;;;;;;;15.63;3.20;;;;;;;6.64;83.15;100091.00;5021860;27;96862;-72
2024/01/14 05:40:54;;;;;;;13.40;2.20;;;;;;;6.61;83.29;100090.25;5022459;27;98807;-74
2024/01/14 05:43:20;;;;;;;19.38;3.53;;;;;;;6.56;83.58;100095.66;5024192;27;98185;-74
2024/01/14 05:45:47;;;;;;;25.17;2.40;;;;;;;6.43;83.23;100096.91;5025759;27;99182;-74
2024/01/14 05:48:13;;;;;;;13.30;1.33;;;;;;;6.45;84.01;100089.84;5013439;27;96987;-74
2024/01/14 05:50:41;;;;;;;10.73;1.40;;;;;;;5.97;86.19;100092.94;5020570;27;96773;-74
2024/01/14 05:53:07;;;;;;;14.95;3.33;;;;;;;4.99;90.98;100088.41;5017171;27;99516;-74
2024/01/14 05:55:34;;;;;;;32.38;7.65;;;;;;;5.15;92.00;100095.00;5014891;27;100310;-74
2024/01/14 05:58:03;;;;;;;29.42;8.00;;;;;;;5.40;91.28;100090.03;5020295;27;96959;-75
2024/01/14 06:00:29;;;;;;;16.50;4.13;;;;;;;5.16;90.94;100086.25;5015651;27;96959;-75
2024/01/14 06:02:56;;;;;;;12.93;1.80;;;;;;;5.38;91.93;100096.22;5021385;27;98866;-75
2024/01/14 06:05:22;;;;;;;14.20;2.33;;;;;;;5.40;91.88;100095.28;5021709;27;97688;-75
2024/01/14 06:07:50;;;;;;;10.40;1.60;;;;;;;5.80;89.38;100078.53;5023227;27;97020;-75
2024/01/14 06:10:16;;;;;;;10.60;1.60;;;;;;;5.12;92.14;100073.28;5016565;27;96978;-75
2024/01/14 06:12:43;;;;;;;12.93;2.10;;;;;;;5.28;93.04;100079.00;5025294;27;99774;-75
2024/01/14 06:15:10;;;;;;;13.50;1.33;;;;;;;5.54;90.62;100076.59;5018976;27;99241;-74
2024/01/14 06:17:36;;;;;;;11.93;1.23;;;;;;;5.94;88.77;100079.06;5020264;27;96752;-74
2024/01/14 06:20:03;;;;;;;20.25;5.20;;;;;;;5.30;90.90;100092.94;5021184;27;97289;-75
2024/01/14 06:22:30;;;;;;;20.02;7.60;;;;;;;5.28;91.11;100072.00;5024586;27;99414;-74
2024/01/14 06:24:57;;;;;;;17.10;5.18;;;;;;;5.61;89.45;100088.63;5020180;27;98815;-75
2024/01/14 06:27:24;;;;;;;5.80;1.30;;;;;;;5.89;87.97;100084.44;5017917;27;97619;-76
2024/01/14 06:29:50;;;;;;;5.90;1.30;;;;;;;6.18;86.32;100080.13;5016539;27;98377;-76
2024/01/14 06:32:17;;;;;;;16.23;1.58;;;;;;;5.94;87.02;100077.28;5024883;27;101705;-76
2024/01/14 06:34:43;;;;;;;10.00;1.23;;;;;;;6.09;86.39;100080.41;5022524;27;98803;-75
2024/01/14 06:37:10;;;;;;;9.07;1.45;;;;;;;5.83;86.85;100075.84;5029400;27;97336;-74
2024/01/14 06:39:36;;;;;;;6.82;1.48;;;;;;;5.81;86.86;100075.88;5025073;27;97412;-75
2024/01/14 06:42:04;;;;;;;16.45;3.90;;;;;;;5.82;86.86;100081.97;5020969;27;98440;-75
2024/01/14 06:44:30;;;;;;;6.85;1.30;;;;;;;5.51;87.88;100081.91;5018849;27;98829;-74
2024/01/14 06:46:57;;;;;;;14.65;2.08;;;;;;;5.73;87.27;100082.22;5022144;27;96787;-74
2024/01/14 06:49:23;;;;;;;9.68;1.48;;;;;;;5.84;86.27;100086.25;5020735;27;97217;-74
2024/01/14 06:51:50;;;;;;;12.13;2.00;;;;;;;5.66;87.59;100085.88;5016021;27;98603;-74
2024/01/14 06:54:16;;;;;;;17.13;6.55;;;;;;;5.07;90.27;100075.13;5024244;27;98845;-74
2024/01/14 06:56:44;;;;;;;15.93;1.85;;;;;;;5.21;92.18;100089.63;5022011;27;97184;-74
2024/01/14 06:59:14;;;;;;;8.75;1.10;;;;;;;5.47;89.44;100081.13;5022009;27;96847;-74
2024/01/14 07:01:41;;;;;;;16.15;2.33;;;;;;;5.72;88.55;100081.34;5020046;27;100688;-75
2024/01/14 07:04:07;;;;;;;11.63;1.45;;;;;;;5.97;86.60;100077.19;5026318;27;99201;-75
2024/01/14 07:06:33;;;;;;;16.48;2.15;;;;;;;5.66;88.19;100081.50;5014563;27;97479;-75
2024/01/14 07:09:00;;;;;;;10.13;1.52;;;;;;;5.58;88.26;100075.59;5022310;27;96865;-74
2024/01/14 07:11:26;;;;;;;8.05;1.67;;;;;;;5.76;88.10;100082.13;5019823;27;99735;-75
2024/01/14 07:13:52;;;;;;;5.90;1.52;;;;;;;5.56;89.47;100085.28;5027852;27;100178;-75
2024/01/14 07:16:20;;;;;;;10.25;1.20;;;;;;;5.47;89.29;100080.25;5025230;27;97605;-74
2024/01/14 07:18:47;;;;;;;11.93;1.35;;;;;;;5.45;89.71;100079.44;5024587;27;97180;-75
2024/01/14 07:21:14;;;;;;;8.45;1.10;;;;;;;5.16;90.37;100080.16;5025995;27;99234;-75
2024/01/14 07:23:40;;;;;;;9.45;1.63;;;;;;;5.74;88.84;100079.56;5027023;27;99198;-75
2024/01/14 07:26:13;;;;;;;11.85;1.40;;;;;;;5.66;88.38;100080.66;5018836;27;97074;-75
2024/01/14 07:28:40;;;;;;;7.07;1.30;;;;;;;5.69;87.38;100081.44;5015451;27;97163;-75
2024/01/14 07:31:06;;;;;;;13.52;2.08;;;;;;;5.64;87.45;100087.72;5022129;27;99287;-75
2024/01/14 07:33:34;;;;;;;11.60;1.33;;;;;;;5.51;88.49;100081.91;5024490;27;98963;-74
2024/01/14 07:36:00;;;;;;;12.32;1.08;;;;;;;4.93;90.34;100083.31;5018503;27;97600;-74
2024/01/14 07:38:27;;;;;;;6.97;1.05;;;;;;;5.50;88.46;100093.28;5021243;27;98507;-74
2024/01/14 07:40:53;;;;;;;8.45;1.33;;;;;;;5.97;86.75;100081.59;5026175;27;99182;-75
2024/01/14 07:43:19;;;;;;;9.50;1.10;;;;;;;5.54;87.58;100084.44;5023628;27;98767;-74
2024/01/14 07:45:46;;;;;;;15.60;1.15;;;;;;;5.15;88.56;100084.53;5021314;27;97004;-75
2024/01/14 07:48:12;;;;;;;9.90;1.95;;;;;;;5.28;88.52;100097.34;5023405;27;97428;-76
2024/01/14 07:50:40;;;;;;;9.15;0.90;;;;;;;5.22;88.50;100095.72;5025988;27;99108;-75
2024/01/14 07:53:07;;;;;;;11.95;1.55;;;;;;;5.27;88.53;100098.22;5023424;27;97572;-75
2024/01/14 07:55:34;;;;;;;10.23;1.58;;;;;;;5.43;87.60;100082.09;5025109;27;96802;-75
2024/01/14 07:58:00;;;;;;;9.73;1.27;;;;;;;5.18;89.03;100096.72;5026170;27;98294;-76
2024/01/14 08:00:27;;;;;;;7.97;1.40;;;;;;;5.46;88.07;100094.25;5016458;27;97088;-74
2024/01/14 08:02:53;;;;;;;10.93;1.23;;;;;;;5.29;88.86;100083.34;5025225;27;98845;-74
2024/01/14 08:05:20;;;;;;;10.20;1.50;;;;;;;4.89;90.67;100092.13;5025524;27;96912;-74
2024/01/14 08:07:47;;;;;;;10.05;1.75;;;;;;;5.13;90.17;100096.78;5011801;27;98859;-76
2024/01/14 08:10:14;;;;;;;12.48;1.38;;;;;;;4.99;90.32;100093.63;5023746;27;99603;-75
2024/01/14 08:12:41;;;;;;;8.38;1.00;;;;;;;4.95;90.47;100092.00;5017097;27;98404;-77
2024/01/14 08:15:07;;;;;;;9.20;1.23;;;;;;;4.94;90.38;100100.75;5020676;27;98071;-75
2024/01/14 08:17:34;;;;;;;6.50;0.90;;;;;;;4.93;90.95;100096.41;5022641;27;96815;-76
2024/01/14 08:20:00;;;;;;;5.60;1.10;;;;;;;5.50;88.41;100088.91;5018830;27;101747;-76
2024/01/14 08:22:27;;;;;;;9.77;0.93;;;;;;;5.49;88.74;100094.19;5020031;27;101299;-76
2024/01/14 08:24:54;;;;;;;8.88;1.50;;;;;;;5.12;89.62;100089.00;5020837;27;98186;-75
2024/01/14 08:27:21;;;;;;;6.93;1.50;;;;;;;4.89;91.41;100089.53;5019298;27;97131;-76
2024/01/14 08:29:47;;;;;;;7.80;1.33;;;;;;;5.08;90.11;100092.56;5020080;27;99440;-74
2024/01/14 08:32:13;;;;;;;10.50;1.55;;;;;;;4.93;89.85;100088.53;5023555;27;100019;-75
2024/01/14 08:34:40;;;;;;;4.43;0.90;;;;;;;5.31;89.56;100089.41;5025421;27;96752;-76
2024/01/14 08:37:06;;;;;;;6.88;1.08;;;;;;;5.29;88.45;100091.19;5022277;27;96851;-73
2024/01/14 08:39:33;;;;;;;5.70;0.68;;;;;;;5.59;87.82;100075.56;5022879;27;98758;-73
2024/01/14 08:42:00;;;;;;;3.70;1.25;;;;;;;5.22;87.98;100083.50;5022031;27;99114;-74
2024/01/14 08:44:27;;;;;;;10.50;1.15;;;;;;;5.40;88.85;100087.41;5021230;27;97277;-72
2024/01/14 08:46:54;;;;;;;5.07;0.95;;;;;;;5.51;87.95;100085.38;5014234;27;96886;-72
2024/01/14 08:49:21;;;;;;;5.97;1.15;;;;;;;5.52;88.01;100084.47;5021352;27;98876;-73
2024/01/14 08:51:47;;;;;;;10.95;1.08;;;;;;;5.38;88.22;100080.50;5025742;27;98986;-73
2024/01/14 08:54:14;;;;;;;7.95;1.10;;;;;;;5.44;88.06;100086.47;5023298;27;96967;-75
2024/01/14 08:56:40;;;;;;;8.70;1.50;;;;;;;5.68;87.30;100084.97;5018572;27;96750;-73
2024/01/14 08:59:08;;;;;;;3.80;0.80;;;;;;;5.63;87.10;100083.34;5022854;27;99445;-74
2024/01/14 09:01:34;;;;;;;4.45;0.73;;;;;;;4.92;90.04;100085.97;5019622;27;99447;-74
2024/01/14 09:04:01;;;;;;;6.10;1.25;;;;;;;5.22;88.75;100093.09;5015881;27;97771;-73
2024/01/14 09:06:27;;;;;;;8.02;1.38;;;;;;;5.09;89.75;100094.28;5019397;27;97195;-75
2024/01/14 09:08:54;;;;;;;9.93;1.52;;;;;;;5.01;90.02;100097.09;5018781;27;101110;-74
2024/01/14 09:11:20;;;;;;;6.05;0.82;;;;;;;5.28;88.69;100094.72;5013961;27;97668;-73
2024/01/14 09:13:47;;;;;;;4.55;1.00;;;;;;;5.61;88.10;100093.88;5025299;27;99240;-75
2024/01/14 09:16:15;;;;;;;6.53;1.23;;;;;;;5.90;86.29;100095.78;5026578;27;97221;-75
2024/01/14 09:18:42;;;;;;;6.45;1.10;;;;;;;6.36;84.14;100101.47;5018869;27;102714;-75
2024/01/14 09:21:08;;;;;;;6.57;0.93;;;;;;;5.98;85.29;100092.03;5020398;27;101285;-72
2024/01/14 09:23:35;;;;;;;2.42;0.70;;;;;;;5.26;88.86;100096.50;5027936;27;96779;-77
2024/01/14 09:26:01;;;;;;;6.80;1.00;;;;;;;5.36;89.83;100113.72;5026332;27;97164;-78
2024/01/14 09:28:29;;;;;;;5.15;0.70;;;;;;;5.13;90.85;100112.50;5022439;27;101198;-77
2024/01/14 09:30:55;;;;;;;7.82;1.33;;;;;;;5.45;89.93;100098.63;5023629;27;99247;-73
2024/01/14 09:33:23;;;;;;;7.57;1.13;;;;;;;5.81;88.64;100112.56;5020913;27;96727;-74
2024/01/14 09:35:49;;;;;;;4.88;0.77;;;;;;;5.54;88.60;100108.03;5023428;27;96678;-74
2024/01/14 09:38:16;;;;;;;10.18;0.93;;;;;;;6.07;86.68;100104.03;5021973;27;98684;-73
2024/01/14 09:40:43;;;;;;;3.15;0.75;;;;;;;5.36;89.12;100111.13;5021625;27;98701;-74
2024/01/14 09:43:11;;;;;;;8.68;1.05;;;;;;;5.34;90.61;100111.16;5019912;27;97134;-74
2024/01/14 09:45:40;;;;;;;10.93;1.25;;;;;;;5.29;90.31;100113.03;5020074;27;97276;-74
2024/01/14 09:48:08;;;;;;;6.57;0.98;;;;;;;5.45;90.32;100109.13;5008448;27;99037;-73
2024/01/14 09:50:36;;;;;;;5.78;0.80;;;;;;;5.75;88.64;100107.50;5016868;27;99007;-74
2024/01/14 09:53:09;;;;;;;5.88;0.90;;;;;;;5.42;88.92;100103.09;5019888;27;96781;-74
2024/01/14 09:55:36;;;;;;;6.25;0.95;;;;;;;5.38;90.21;100096.22;5024100;27;96855;-74
2024/01/14 09:58:05;;;;;;;12.27;1.65;;;;;;;5.66;89.07;100106.84;5021593;27;97355;-73
2024/01/14 10:00:31;;;;;;;5.05;0.82;;;;;;;6.14;86.84;100108.22;5017716;27;99017;-73
2024/01/14 10:02:59;;;;;;;5.60;1.10;;;;;;;6.65;83.81;100103.25;5022107;27;97721;-74
2024/01/14 10:05:25;;;;;;;10.20;1.00;;;;;;;6.30;83.35;100098.19;5025487;27;97335;-74
2024/01/14 10:07:53;;;;;;;10.63;1.65;;;;;;;6.87;82.22;100094.72;5025631;27;102163;-74
2024/01/14 10:10:20;;;;;;;8.70;1.13;;;;;;;6.10;85.57;100087.38;5016534;27;98852;-73
2024/01/14 10:12:49;;;;;;;8.95;1.30;;;;;;;6.13;85.26;100082.03;5013802;27;97142;-74
2024/01/14 10:15:15;;;;;;;6.78;1.10;;;;;;;6.04;86.86;100092.78;5022889;27;97431;-74
2024/01/14 10:17:45;;;;;;;9.15;1.13;;;;;;;5.88;87.25;100082.72;5020628;27;101667;-74
2024/01/14 10:20:11;;;;;;;9.80;1.38;;;;;;;5.84;87.11;100080.19;5021807;27;99134;-74
2024/01/14 10:22:42;;;;;;;7.25;1.38;;;;;;;5.63;88.23;100073.75;5024937;27;99314;-74
2024/01/14 10:25:09;;;;;;;7.22;1.02;;;;;;;5.35;89.68;100072.72;5020737;27;98578;-74
2024/01/14 10:27:36;;;;;;;14.88;1.02;;;;;;;5.58;90.23;100068.59;5021172;27;99025;-74
2024/01/14 10:30:02;;;;;;;12.43;1.98;;;;;;;6.31;86.97;100071.88;5017793;27;99805;-74
2024/01/14 10:32:32;;;;;;;9.50;1.23;;;;;;;6.30;85.48;100064.06;5023179;27;96760;-74
2024/01/14 10:34:59;;;;;;;7.03;1.70;;;;;;;5.86;87.06;100067.88;5020451;27;97987;-73
2024/01/14 10:37:28;;;;;;;4.65;0.98;;;;;;;6.22;86.51;100059.03;5017752;27;98546;-73
2024/01/14 10:39:54;;;;;;;9.25;1.63;;;;;;;6.15;85.94;100061.88;5023282;27;99068;-73
2024/01/14 10:42:22;;;;;;;5.50;0.93;;;;;;;5.90;87.63;100069.56;5016263;27;97017;-73
2024/01/14 10:44:49;;;;;;;10.73;1.30;;;;;;;5.64;89.57;100064.97;5027166;27;96802;-73
2024/01/14 10:47:18;;;;;;;5.65;0.93;;;;;;;5.98;87.98;100071.06;5022277;27;98896;-73
2024/01/14 10:49:46;;;;;;;11.38;1.50;;;;;;;6.16;86.62;100055.72;5026242;27;99035;-73
2024/01/14 10:52:14;;;;;;;10.05;1.00;;;;;;;6.28;85.96;100060.63;5026194;27;97133;-74
2024/01/14 10:54:48;;;;;;;5.40;1.10;;;;;;;6.28;86.50;100058.00;5030464;27;96876;-73
2024/01/14 10:57:28;;;;;;;8.48;1.25;;;;;;;6.20;85.70;100052.09;5023701;27;98970;-74
2024/01/14 10:59:58;;;;;;;6.07;1.15;;;;;;;5.78;87.24;100060.22;5023141;27;100047;-74
2024/01/14 11:02:29;;;;;;;8.27;1.20;;;;;;;5.80;88.01;100052.31;5024442;27;96766;-74
2024/01/14 11:04:56;;;;;;;7.82;1.23;;;;;;;6.04;87.28;100059.53;5026490;27;96878;-76
2024/01/14 11:07:23;;;;;;;4.10;1.00;;;;;;;5.75;88.32;100057.69;5021216;27;97853;-75
2024/01/14 11:09:52;;;;;;;9.32;1.48;;;;;;;6.20;87.13;100052.97;5022266;27;99965;-74
2024/01/14 11:12:26;;;;;;;10.48;1.20;;;;;;;6.42;84.91;100049.72;5027400;27;97322;-74
2024/01/14 11:14:59;;;;;;;7.40;1.27;;;;;;;6.39;85.72;100048.03;5023983;27;98233;-75
2024/01/14 11:17:45;;;;;;;5.20;1.00;;;;;;;6.46;83.86;100038.22;5015237;27;98904;-74
2024/01/14 11:20:15;;;;;;;10.90;2.88;;;;;;;6.47;84.56;100042.56;5021132;27;99383;-73
2024/01/14 11:22:41;;;;;;;9.82;1.45;;;;;;;6.25;84.38;100039.69;5022195;27;96881;-73
2024/01/14 11:25:15;;;;;;;14.45;1.55;;;;;;;6.57;83.71;100033.50;5023865;27;100634;-74
2024/01/14 11:27:43;;;;;;;6.75;1.15;;;;;;;6.51;84.11;100037.16;5023803;27;99183;-74